Time;durP1;ratioP1;P1;durP2;ratioP2;P2;SDS_P1;SDS_P2;PMS_P1;PMS_P2;Temp;Humidity;BMP_temperature;BMP_pressure;BME280_temperature;BME280_humidity;BME280_pressure;Samples;Min_cycle;Max_cycle;Signal;HPM_P1;HPM_P2
2020/12/24 00:01:55;;;;;;;0.60;0.60;;;10.50;99.90;;;;;;6188026;23;20242;-83
2020/12/24 00:04:21;;;;;;;0.50;0.50;;;10.50;99.90;;;;;;6188368;23;20203;-83
2020/12/24 00:06:47;;;;;;;0.82;0.70;;;10.40;99.90;;;;;;6188198;23;20184;-83
2020/12/24 00:09:14;;;;;;;0.60;0.60;;;10.30;99.90;;;;;;6188503;23;20182;-83
2020/12/24 00:11:41;;;;;;;0.70;0.70;;;10.20;99.90;;;;;;6188130;23;20167;-82
2020/12/24 00:14:07;;;;;;;0.50;0.50;;;10.10;99.90;;;;;;6187532;23;20178;-83
2020/12/24 00:16:33;;;;;;;0.50;0.50;;;10.00;99.90;;;;;;6187994;23;20563;-83
2020/12/24 00:18:59;;;;;;;0.45;0.45;;;10.00;99.90;;;;;;6188293;23;20179;-83
2020/12/24 00:21:25;;;;;;;0.70;0.40;;;10.00;99.90;;;;;;6187928;23;20218;-83
2020/12/24 00:23:52;;;;;;;0.50;0.50;;;9.90;99.90;;;;;;6188442;23;20233;-83
2020/12/24 00:26:19;;;;;;;1.58;0.70;;;9.90;99.90;;;;;;6188446;23;20548;-83
2020/12/24 00:28:45;;;;;;;0.63;0.60;;;9.90;99.90;;;;;;6188034;23;20186;-83
2020/12/24 00:31:11;;;;;;;1.00;1.00;;;9.90;99.90;;;;;;6188213;23;20175;-83
2020/12/24 00:33:37;;;;;;;0.63;0.63;;;9.90;99.90;;;;;;6187685;23;20242;-83
2020/12/24 00:36:04;;;;;;;1.10;0.63;;;9.90;99.90;;;;;;6187341;23;20207;-83
2020/12/24 00:38:30;;;;;;;0.73;0.70;;;9.90;99.90;;;;;;6187425;23;20183;-83
2020/12/24 00:40:56;;;;;;;0.60;0.57;;;9.90;99.90;;;;;;6188313;23;20524;-83
2020/12/24 00:43:23;;;;;;;0.80;0.70;;;9.70;99.90;;;;;;6188119;23;20179;-82
2020/12/24 00:45:49;;;;;;;0.60;0.60;;;9.70;99.90;;;;;;6187536;23;20199;-83
2020/12/24 00:48:15;;;;;;;0.55;0.45;;;9.70;99.90;;;;;;6188127;23;20187;-83
2020/12/24 00:50:42;;;;;;;1.10;0.52;;;9.80;99.90;;;;;;6187420;23;20249;-83
2020/12/24 00:53:08;;;;;;;0.45;0.45;;;9.80;99.90;;;;;;6187931;23;20189;-83
2020/12/24 00:55:34;;;;;;;0.95;0.52;;;9.80;99.90;;;;;;6187594;23;20202;-83
2020/12/24 00:58:00;;;;;;;0.40;0.40;;;9.90;99.90;;;;;;6187638;23;20492;-82
2020/12/24 01:00:27;;;;;;;0.40;0.40;;;9.90;99.90;;;;;;6187777;23;20183;-83
2020/12/24 01:02:54;;;;;;;0.50;0.50;;;9.70;99.90;;;;;;6187876;23;20718;-82
2020/12/24 01:05:20;;;;;;;1.02;0.75;;;9.70;99.90;;;;;;6188284;23;20221;-82
2020/12/24 01:07:46;;;;;;;0.50;0.50;;;9.70;99.90;;;;;;6188799;23;20182;-83
2020/12/24 01:10:12;;;;;;;2.17;0.75;;;9.70;99.90;;;;;;6189766;23;20183;-82
2020/12/24 01:12:39;;;;;;;0.95;0.47;;;9.60;99.90;;;;;;6187825;23;20175;-82
2020/12/24 01:15:07;;;;;;;1.38;0.50;;;9.60;99.90;;;;;;6194385;23;20210;-82
2020/12/24 01:17:34;;;;;;;1.25;0.73;;;9.50;99.90;;;;;;6189423;23;20190;-83
2020/12/24 01:20:00;;;;;;;0.50;0.50;;;9.40;99.90;;;;;;6189979;23;20696;-84
2020/12/24 01:22:26;;;;;;;1.50;1.05;;;9.30;99.90;;;;;;6190420;23;20199;-84
2020/12/24 01:24:52;;;;;;;0.98;0.85;;;9.30;99.90;;;;;;6191558;23;20238;-84
2020/12/24 01:27:19;;;;;;;0.77;0.77;;;9.40;99.90;;;;;;6191413;23;20185;-84
2020/12/24 01:29:45;;;;;;;1.02;1.02;;;9.50;99.90;;;;;;6191856;23;20237;-84
2020/12/24 01:32:11;;;;;;;0.73;0.73;;;9.50;99.90;;;;;;6191002;23;20179;-84
2020/12/24 01:34:38;;;;;;;2.70;0.90;;;9.50;99.90;;;;;;6190413;23;20207;-84
2020/12/24 01:37:04;;;;;;;2.40;0.55;;;9.50;99.90;;;;;;6190843;23;20217;-83
2020/12/24 01:39:31;;;;;;;1.00;0.77;;;9.50;99.90;;;;;;6191378;23;20499;-83
2020/12/24 01:41:57;;;;;;;0.55;0.55;;;9.50;99.90;;;;;;6189263;23;20199;-84
2020/12/24 01:44:24;;;;;;;0.40;0.40;;;9.50;99.90;;;;;;6188487;23;20203;-83
2020/12/24 01:46:50;;;;;;;0.63;0.63;;;9.60;99.90;;;;;;6188837;23;20175;-84
2020/12/24 01:49:17;;;;;;;0.75;0.75;;;9.60;99.90;;;;;;6189745;23;20210;-84
2020/12/24 01:51:50;;;;;;;0.60;0.50;;;9.60;99.90;;;;;;6189421;23;20225;-85
2020/12/24 01:54:17;;;;;;;0.63;0.63;;;9.60;99.90;;;;;;6188320;23;20202;-84
2020/12/24 01:56:44;;;;;;;0.75;0.57;;;9.50;99.90;;;;;;6188749;23;20182;-84
2020/12/24 01:59:14;;;;;;;1.20;0.50;;;9.50;99.90;;;;;;6188502;23;20189;-84
2020/12/24 02:01:42;;;;;;;0.75;0.50;;;9.50;99.90;;;;;;6189504;23;20186;-83
2020/12/24 02:04:10;;;;;;;1.48;0.70;;;9.40;99.90;;;;;;6188694;23;20183;-84
2020/12/24 02:06:36;;;;;;;0.70;0.70;;;9.30;99.90;;;;;;6189757;23;20514;-84
2020/12/24 02:09:03;;;;;;;1.35;0.70;;;9.30;99.90;;;;;;6189092;23;20198;-85
2020/12/24 02:11:30;;;;;;;1.80;0.60;;;9.20;99.90;;;;;;6188868;23;20179;-84
2020/12/24 02:13:56;;;;;;;0.63;0.60;;;9.20;99.90;;;;;;6188349;23;20182;-85
2020/12/24 02:16:22;;;;;;;1.50;0.57;;;9.00;99.90;;;;;;6189340;23;20179;-85
2020/12/24 02:18:48;;;;;;;1.05;0.80;;;8.80;99.90;;;;;;6190592;23;20666;-85
2020/12/24 02:21:15;;;;;;;0.60;0.60;;;8.70;99.90;;;;;;6190247;23;20203;-84
2020/12/24 02:23:42;;;;;;;0.60;0.60;;;8.60;99.90;;;;;;6190799;23;20201;-85
2020/12/24 02:26:08;;;;;;;0.50;0.50;;;8.60;99.90;;;;;;6189896;23;20210;-83
2020/12/24 02:28:34;;;;;;;2.17;1.77;;;8.60;99.90;;;;;;6191101;23;20187;-84
2020/12/24 02:31:01;;;;;;;1.20;0.80;;;8.60;99.90;;;;;;6190781;23;20642;-84
2020/12/24 02:33:27;;;;;;;1.20;0.90;;;8.70;99.90;;;;;;6189640;23;20186;-85
2020/12/24 02:35:54;;;;;;;0.70;0.60;;;8.70;99.90;;;;;;6190135;23;20205;-85
2020/12/24 02:38:21;;;;;;;1.52;0.77;;;8.70;99.90;;;;;;6190233;23;20178;-85
2020/12/24 02:40:48;;;;;;;0.60;0.47;;;8.70;99.90;;;;;;6190013;23;20175;-84
2020/12/24 02:43:14;;;;;;;1.23;0.68;;;8.70;99.90;;;;;;6189550;23;20615;-84
2020/12/24 02:45:41;;;;;;;0.70;0.63;;;8.80;99.90;;;;;;6190805;23;20203;-84
2020/12/24 02:48:07;;;;;;;2.10;0.93;;;8.80;99.90;;;;;;6190433;23;20179;-84
2020/12/24 02:50:33;;;;;;;1.70;0.63;;;8.80;99.90;;;;;;6189915;23;20188;-84
2020/12/24 02:53:00;;;;;;;0.73;0.57;;;8.80;99.90;;;;;;6189711;23;20178;-85
2020/12/24 02:55:27;;;;;;;2.70;0.85;;;8.70;99.90;;;;;;6189092;23;20198;-85
2020/12/24 02:57:53;;;;;;;1.02;0.60;;;8.70;99.90;;;;;;6190056;23;20178;-84
2020/12/24 03:00:19;;;;;;;2.22;0.68;;;8.70;99.90;;;;;;6190981;23;20182;-84
2020/12/24 03:02:45;;;;;;;0.63;0.55;;;8.70;99.90;;;;;;6191328;23;20202;-84
2020/12/24 03:05:12;;;;;;;1.17;0.60;;;8.70;99.90;;;;;;6191881;23;20202;-84
2020/12/24 03:07:38;;;;;;;0.47;0.47;;;8.70;99.90;;;;;;6192203;23;20186;-85
2020/12/24 03:10:05;;;;;;;0.40;0.40;;;8.60;99.90;;;;;;6192891;23;20663;-84
2020/12/24 03:12:32;;;;;;;1.15;0.60;;;8.60;99.90;;;;;;6191769;23;20270;-84
2020/12/24 03:14:58;;;;;;;0.93;0.65;;;8.60;99.90;;;;;;6190570;23;20202;-84
2020/12/24 03:17:24;;;;;;;0.40;0.40;;;8.60;99.90;;;;;;6190331;23;20182;-84
2020/12/24 03:19:50;;;;;;;1.35;0.60;;;8.50;99.90;;;;;;6190344;23;20183;-84
2020/12/24 03:22:16;;;;;;;0.30;0.30;;;8.50;99.90;;;;;;6190921;23;20226;-84
2020/12/24 03:24:43;;;;;;;1.48;0.57;;;8.50;99.90;;;;;;6190666;23;20203;-84
2020/12/24 03:27:09;;;;;;;0.47;0.40;;;8.50;99.90;;;;;;6189980;23;20290;-85
2020/12/24 03:29:36;;;;;;;0.47;0.47;;;8.50;99.90;;;;;;6190673;23;20189;-84
2020/12/24 03:32:02;;;;;;;1.60;0.75;;;8.40;99.90;;;;;;6191509;23;20178;-84
2020/12/24 03:34:28;;;;;;;0.60;0.40;;;8.40;99.90;;;;;;6189531;23;20214;-84
2020/12/24 03:36:55;;;;;;;2.10;0.73;;;8.50;99.90;;;;;;6194529;23;20602;-83
2020/12/24 03:39:21;;;;;;;0.88;0.60;;;8.40;99.90;;;;;;6196006;23;20206;-83
2020/12/24 03:41:47;;;;;;;0.50;0.40;;;8.50;99.90;;;;;;6194046;23;20529;-84
2020/12/24 03:44:13;;;;;;;1.30;0.70;;;8.40;99.90;;;;;;6194236;23;20186;-84
2020/12/24 03:46:40;;;;;;;0.40;0.40;;;8.40;99.90;;;;;;6194336;23;20630;-84
2020/12/24 03:49:07;;;;;;;0.60;0.60;;;8.40;99.90;;;;;;6194532;23;20182;-84
2020/12/24 03:51:33;;;;;;;0.55;0.50;;;8.40;99.90;;;;;;6194388;23;20514;-84
2020/12/24 03:53:59;;;;;;;1.15;0.40;;;8.40;99.90;;;;;;6195316;23;20206;-83
2020/12/24 03:56:25;;;;;;;1.17;1.08;;;8.30;99.90;;;;;;6195330;23;20229;-84
2020/12/24 03:58:51;;;;;;;0.70;0.70;;;8.30;99.90;;;;;;6196308;23;20186;-83
2020/12/24 04:01:18;;;;;;;0.60;0.50;;;8.30;99.90;;;;;;6196686;23;20198;-84
2020/12/24 04:03:45;;;;;;;0.60;0.60;;;8.30;99.90;;;;;;6196710;23;20185;-84
2020/12/24 04:06:11;;;;;;;1.23;0.60;;;8.20;99.90;;;;;;6196889;23;20202;-84
2020/12/24 04:08:37;;;;;;;0.70;0.70;;;8.20;99.90;;;;;;6196100;23;20447;-84
2020/12/24 04:11:03;;;;;;;0.98;0.90;;;8.20;99.90;;;;;;6197030;23;20183;-84
2020/12/24 04:13:30;;;;;;;1.58;0.52;;;8.20;99.90;;;;;;6196520;23;20228;-84
2020/12/24 04:15:56;;;;;;;0.50;0.50;;;8.20;99.90;;;;;;6194903;23;20267;-84
2020/12/24 04:18:22;;;;;;;0.40;0.30;;;8.20;99.90;;;;;;6194209;23;20248;-83
2020/12/24 04:20:49;;;;;;;0.68;0.45;;;8.20;99.90;;;;;;6194893;23;20178;-84
2020/12/24 04:23:15;;;;;;;0.40;0.40;;;8.20;99.90;;;;;;6193874;23;20207;-84
2020/12/24 04:25:41;;;;;;;0.88;0.60;;;8.20;99.90;;;;;;6193868;23;20554;-84
2020/12/24 04:28:08;;;;;;;1.30;0.50;;;8.30;99.90;;;;;;6195055;23;20183;-83
2020/12/24 04:30:34;;;;;;;0.85;0.52;;;8.20;99.90;;;;;;6193868;23;20182;-84
2020/12/24 04:33:00;;;;;;;0.40;0.40;;;8.30;99.90;;;;;;6193803;23;20261;-84
2020/12/24 04:35:26;;;;;;;1.00;0.52;;;8.30;99.90;;;;;;6194225;23;20523;-84
2020/12/24 04:37:53;;;;;;;0.90;0.75;;;8.30;99.90;;;;;;6194150;23;20179;-84
2020/12/24 04:40:20;;;;;;;1.20;0.70;;;8.30;99.90;;;;;;6193779;23;20232;-84
2020/12/24 04:42:47;;;;;;;0.90;0.50;;;8.20;99.90;;;;;;6194369;23;20202;-84
2020/12/24 04:45:14;;;;;;;0.55;0.55;;;8.30;99.90;;;;;;6194462;23;20198;-84
2020/12/24 04:47:42;;;;;;;0.65;0.60;;;8.30;99.90;;;;;;6194435;23;20186;-83
2020/12/24 04:50:09;;;;;;;1.65;0.50;;;8.30;99.90;;;;;;6193554;23;20186;-83
2020/12/24 04:52:36;;;;;;;0.60;0.45;;;8.20;99.90;;;;;;6193343;23;20179;-84
2020/12/24 04:55:04;;;;;;;0.35;0.30;;;8.20;99.90;;;;;;6193934;23;20210;-83
2020/12/24 04:57:31;;;;;;;1.30;0.40;;;8.20;99.90;;;;;;6193720;23;20183;-84
2020/12/24 04:59:59;;;;;;;1.65;0.60;;;8.10;99.90;;;;;;6193324;23;20182;-84
2020/12/24 05:02:25;;;;;;;0.50;0.50;;;8.10;99.90;;;;;;6209022;23;20202;-82
2020/12/24 05:04:52;;;;;;;0.65;0.50;;;8.00;99.90;;;;;;6210644;23;20205;-83
2020/12/24 05:07:19;;;;;;;0.50;0.50;;;8.00;99.90;;;;;;6203860;23;20178;-82
2020/12/24 05:09:49;;;;;;;0.60;0.60;;;7.90;99.90;;;;;;6202936;23;20182;-84
2020/12/24 05:12:27;;;;;;;0.60;0.60;;;7.90;99.90;;;;;;6193353;23;20623;-84
2020/12/24 05:14:54;;;;;;;0.50;0.40;;;7.80;99.90;;;;;;6194040;23;20202;-84
2020/12/24 05:17:21;;;;;;;0.73;0.70;;;7.80;99.90;;;;;;6194345;23;20183;-84
2020/12/24 05:19:59;;;;;;;0.98;0.50;;;7.70;99.90;;;;;;6194017;23;20232;-84
2020/12/24 05:22:25;;;;;;;0.77;0.70;;;7.70;99.90;;;;;;6193354;23;20249;-84
2020/12/24 05:24:52;;;;;;;0.60;0.47;;;7.60;99.90;;;;;;6194091;23;20285;-84
2020/12/24 05:27:20;;;;;;;0.50;0.50;;;7.60;99.90;;;;;;6193857;23;20182;-84
2020/12/24 05:29:49;;;;;;;1.00;0.60;;;7.60;99.90;;;;;;6194062;23;20220;-84
2020/12/24 05:32:25;;;;;;;0.60;0.50;;;7.50;99.90;;;;;;6193589;23;20193;-84
2020/12/24 05:35:02;;;;;;;1.10;0.80;;;7.40;99.90;;;;;;6193232;23;20209;-83
2020/12/24 05:37:29;;;;;;;1.17;0.70;;;7.40;99.90;;;;;;6193056;23;20170;-84
2020/12/24 05:39:55;;;;;;;1.35;0.98;;;7.40;99.90;;;;;;6192620;23;20182;-84
2020/12/24 05:42:24;;;;;;;0.88;0.70;;;7.40;99.90;;;;;;6192703;23;20681;-83
2020/12/24 05:44:51;;;;;;;0.63;0.63;;;7.40;99.90;;;;;;6193265;23;20265;-83
2020/12/24 05:47:27;;;;;;;2.38;1.35;;;7.40;99.90;;;;;;6193985;23;20190;-84
2020/12/24 05:49:53;;;;;;;1.60;0.50;;;7.40;99.90;;;;;;6196781;23;20166;-83
2020/12/24 05:52:21;;;;;;;1.50;1.40;;;7.40;99.90;;;;;;6204527;23;20204;-83
2020/12/24 05:54:48;;;;;;;0.70;0.70;;;7.40;99.90;;;;;;6200217;23;20199;-84
2020/12/24 05:57:16;;;;;;;0.57;0.52;;;7.40;99.90;;;;;;6202132;23;20186;-83
2020/12/24 05:59:42;;;;;;;0.55;0.55;;;7.40;99.90;;;;;;6201988;23;20253;-83
2020/12/24 06:02:16;;;;;;;0.80;0.80;;;7.40;99.90;;;;;;6201113;23;20258;-84
2020/12/24 06:04:51;;;;;;;1.15;0.55;;;7.40;99.90;;;;;;6198067;23;20202;-83
2020/12/24 06:07:32;;;;;;;1.80;0.93;;;7.30;99.90;;;;;;6195279;23;20182;-84
2020/12/24 06:10:05;;;;;;;1.02;0.88;;;7.30;99.90;;;;;;6195385;23;20189;-83
2020/12/24 06:12:31;;;;;;;1.90;1.25;;;7.30;99.90;;;;;;6194814;23;20166;-84
2020/12/24 06:15:00;;;;;;;0.75;0.70;;;7.20;99.90;;;;;;6194497;23;20482;-83
2020/12/24 06:17:28;;;;;;;0.60;0.60;;;7.20;99.90;;;;;;6194513;23;20183;-83
2020/12/24 06:19:55;;;;;;;1.10;0.70;;;7.20;99.90;;;;;;6194145;23;20186;-83
2020/12/24 06:22:22;;;;;;;1.33;0.88;;;7.20;99.90;;;;;;6194333;23;20198;-83
2020/12/24 06:24:52;;;;;;;1.45;0.80;;;7.20;99.90;;;;;;6194092;23;20198;-83
2020/12/24 06:27:25;;;;;;;2.80;0.60;;;7.20;99.90;;;;;;6194473;23;20186;-83
2020/12/24 06:29:57;;;;;;;1.95;0.70;;;7.20;99.90;;;;;;6193786;23;20167;-83
2020/12/24 06:32:24;;;;;;;2.60;1.05;;;7.20;99.90;;;;;;6192514;23;20163;-83
2020/12/24 06:34:51;;;;;;;1.05;0.93;;;7.30;99.90;;;;;;6193076;23;20210;-83
2020/12/24 06:37:19;;;;;;;1.10;0.80;;;7.30;99.90;;;;;;6193246;23;20179;-83
2020/12/24 06:39:47;;;;;;;1.10;0.85;;;7.30;99.90;;;;;;6193035;23;20185;-83
2020/12/24 06:42:38;;;;;;;1.00;0.90;;;7.40;99.90;;;;;;6193149;23;20198;-83
2020/12/24 06:45:07;;;;;;;1.33;1.00;;;7.40;99.90;;;;;;6171968;23;20202;-83
2020/12/24 06:47:33;;;;;;;3.45;1.00;;;7.40;99.90;;;;;;6193054;23;20189;-83
2020/12/24 06:50:00;;;;;;;1.88;1.00;;;7.50;99.90;;;;;;6193304;23;20217;-83
2020/12/24 06:52:31;;;;;;;1.55;1.40;;;7.40;99.90;;;;;;6192541;23;20431;-84
2020/12/24 06:55:12;;;;;;;4.15;0.90;;;7.40;99.90;;;;;;6192353;23;20257;-83
2020/12/24 06:57:42;;;;;;;0.77;0.70;;;7.40;99.90;;;;;;6193514;23;20174;-82
2020/12/24 07:00:19;;;;;;;3.35;0.90;;;7.40;99.90;;;;;;6192580;23;20182;-83
2020/12/24 07:02:47;;;;;;;6.35;0.98;;;7.40;99.90;;;;;;6192670;23;20262;-83
2020/12/24 07:05:42;;;;;;;0.70;0.70;;;7.40;99.90;;;;;;6192633;23;20221;-83
2020/12/24 07:08:08;;;;;;;1.42;0.80;;;7.30;99.90;;;;;;6192842;23;20179;-83
2020/12/24 07:10:45;;;;;;;1.15;0.73;;;7.30;99.90;;;;;;6193562;23;20187;-83
2020/12/24 07:13:11;;;;;;;1.98;0.90;;;7.40;99.90;;;;;;6192015;23;20185;-82
2020/12/24 07:15:44;;;;;;;1.67;0.80;;;7.40;99.90;;;;;;6192673;23;20202;-83
2020/12/24 07:18:13;;;;;;;2.08;1.17;;;7.40;99.90;;;;;;6189764;23;20209;-83
2020/12/24 07:20:40;;;;;;;1.73;0.80;;;7.40;99.90;;;;;;6192377;23;20233;-83
2020/12/24 07:23:09;;;;;;;1.98;1.13;;;7.30;99.90;;;;;;6191703;23;20178;-84
2020/12/24 07:25:36;;;;;;;3.95;1.67;;;7.30;99.90;;;;;;6193019;23;20704;-83
2020/12/24 07:28:03;;;;;;;1.83;1.00;;;7.30;99.90;;;;;;6191972;23;20642;-83
2020/12/24 07:30:30;;;;;;;1.02;0.88;;;7.30;99.90;;;;;;6192436;23;20183;-83
2020/12/24 07:32:57;;;;;;;1.10;1.00;;;7.40;99.90;;;;;;6192598;23;20528;-83
2020/12/24 07:35:24;;;;;;;2.00;0.82;;;7.40;99.90;;;;;;6192117;23;20207;-83
2020/12/24 07:37:51;;;;;;;6.60;0.90;;;7.30;99.90;;;;;;6192452;23;20186;-83
2020/12/24 07:40:19;;;;;;;1.58;0.90;;;7.40;99.90;;;;;;6192229;23;20182;-83
2020/12/24 07:42:45;;;;;;;1.77;0.95;;;7.50;99.90;;;;;;6192271;23;20182;-84
2020/12/24 07:45:23;;;;;;;1.88;1.75;;;7.40;99.90;;;;;;6194480;23;20272;-83
2020/12/24 07:47:50;;;;;;;2.25;0.68;;;7.50;99.90;;;;;;6194405;23;20167;-83
2020/12/24 07:50:16;;;;;;;1.40;0.98;;;7.50;99.90;;;;;;6194140;23;20179;-83
2020/12/24 07:52:46;;;;;;;3.42;1.20;;;7.60;99.90;;;;;;6194729;23;20198;-83
2020/12/24 07:55:12;;;;;;;2.70;0.95;;;7.60;99.90;;;;;;6195300;23;20203;-83
2020/12/24 07:57:39;;;;;;;1.70;0.82;;;7.60;99.90;;;;;;6194950;23;20178;-84
2020/12/24 08:00:06;;;;;;;2.83;1.10;;;7.70;99.90;;;;;;6195094;23;20179;-84
2020/12/24 08:02:33;;;;;;;2.30;1.05;;;7.70;99.90;;;;;;6195116;23;20178;-83
2020/12/24 08:04:59;;;;;;;1.35;0.63;;;7.80;99.90;;;;;;6195610;23;20282;-83
2020/12/24 08:07:25;;;;;;;1.75;1.00;;;7.70;99.90;;;;;;6194982;23;20210;-83
2020/12/24 08:09:51;;;;;;;1.23;1.23;;;7.70;99.90;;;;;;6195315;23;20194;-84
2020/12/24 08:12:22;;;;;;;3.20;1.45;;;7.80;99.90;;;;;;6195539;23;20250;-83
2020/12/24 08:14:50;;;;;;;3.95;0.80;;;7.80;99.90;;;;;;6195396;23;20209;-84
2020/12/24 08:17:29;;;;;;;2.47;0.90;;;7.70;99.90;;;;;;6195113;23;20179;-83
2020/12/24 08:20:06;;;;;;;0.55;0.50;;;7.80;99.90;;;;;;6195243;23;20164;-83
2020/12/24 08:22:39;;;;;;;2.92;1.15;;;7.80;99.90;;;;;;6193816;23;20173;-82
2020/12/24 08:25:06;;;;;;;4.72;1.35;;;7.80;99.90;;;;;;6194139;23;20530;-83
2020/12/24 08:27:33;;;;;;;1.63;1.08;;;7.90;99.90;;;;;;6193787;23;20182;-83
2020/12/24 08:30:01;;;;;;;0.55;0.55;;;8.00;99.90;;;;;;6193477;23;20182;-83
2020/12/24 08:32:27;;;;;;;1.08;0.55;;;7.90;99.90;;;;;;6193209;23;20210;-83
2020/12/24 08:34:54;;;;;;;1.08;0.60;;;7.90;99.90;;;;;;6193370;23;20206;-83
2020/12/24 08:37:27;;;;;;;1.33;1.23;;;7.80;99.90;;;;;;6194915;23;20184;-83
2020/12/24 08:39:53;;;;;;;2.28;1.25;;;7.80;99.90;;;;;;6194827;23;20183;-82
2020/12/24 08:42:23;;;;;;;3.33;0.50;;;7.70;99.90;;;;;;6194442;23;20178;-82
2020/12/24 08:44:58;;;;;;;0.75;0.75;;;7.70;99.90;;;;;;6194450;23;20202;-83
2020/12/24 08:47:25;;;;;;;3.60;0.98;;;7.60;99.90;;;;;;6194834;23;20168;-83
2020/12/24 08:49:51;;;;;;;2.05;0.90;;;7.60;99.90;;;;;;6194997;23;20186;-82
2020/12/24 08:52:20;;;;;;;0.57;0.40;;;7.60;99.90;;;;;;6194759;23;20194;-82
2020/12/24 08:55:01;;;;;;;1.05;0.40;;;7.60;99.90;;;;;;6196203;23;20203;-81
2020/12/24 08:57:27;;;;;;;0.90;0.90;;;7.50;99.90;;;;;;6212265;23;20233;-82
2020/12/24 08:59:54;;;;;;;3.25;0.80;;;7.50;99.90;;;;;;6209840;23;20265;-82
2020/12/24 09:02:26;;;;;;;1.85;0.50;;;7.50;99.90;;;;;;6195194;23;20181;-83
2020/12/24 09:04:56;;;;;;;2.15;1.00;;;7.60;99.90;;;;;;6194343;23;20234;-84
2020/12/24 09:07:28;;;;;;;0.60;0.45;;;7.60;99.90;;;;;;6193633;23;20179;-83
2020/12/24 09:10:05;;;;;;;1.23;0.90;;;7.60;99.90;;;;;;6194722;23;20186;-83
2020/12/24 09:12:32;;;;;;;3.47;0.90;;;7.60;99.90;;;;;;6193900;23;20617;-82
2020/12/24 09:14:59;;;;;;;0.60;0.45;;;7.60;99.90;;;;;;6194468;23;20210;-83
2020/12/24 09:17:26;;;;;;;1.65;0.75;;;7.60;99.90;;;;;;6194577;23;20186;-82
2020/12/24 09:20:01;;;;;;;0.68;0.50;;;7.60;99.90;;;;;;6194552;23;20178;-83
2020/12/24 09:22:27;;;;;;;0.77;0.63;;;7.60;99.90;;;;;;6194296;23;20229;-82
2020/12/24 09:24:53;;;;;;;1.15;0.60;;;7.60;99.90;;;;;;6194193;23;20751;-82
2020/12/24 09:27:19;;;;;;;1.20;0.30;;;7.60;99.90;;;;;;6195378;23;20190;-83
2020/12/24 09:29:46;;;;;;;0.50;0.50;;;7.70;99.90;;;;;;6194828;23;20178;-83
2020/12/24 09:32:13;;;;;;;1.08;0.75;;;7.70;99.90;;;;;;6194318;23;20580;-83
2020/12/24 09:34:40;;;;;;;1.88;0.50;;;7.70;99.90;;;;;;6192637;23;20213;-84
2020/12/24 09:37:23;;;;;;;0.90;0.70;;;7.70;99.90;;;;;;6191631;23;20229;-83
2020/12/24 09:40:00;;;;;;;2.17;0.70;;;7.80;99.90;;;;;;6190921;23;20178;-83
2020/12/24 09:45:35;;;;;;;1.63;1.00;;;7.80;99.90;;;;;;6186487;23;20637;-83
2020/12/24 09:48:21;;;;;;;0.63;0.63;;;7.80;99.90;;;;;;6192024;23;20176;-83
2020/12/24 09:51:38;;;;;;;;;;;;;;;;;;;;;
2020/12/24 09:57:50;;;;;;;2.05;1.40;;;7.80;99.90;;;;;;6016825;23;20220;-85
2020/12/24 10:00:42;;;;;;;0.50;0.50;;;7.80;99.90;;;;;;6097480;23;20179;-83
2020/12/24 10:03:41;;;;;;;1.52;0.60;;;7.80;99.90;;;;;;6192595;23;20196;-84
2020/12/24 10:09:01;;;;;;;1.17;0.70;;;7.90;99.90;;;;;;6194856;23;20189;-85
2020/12/24 10:11:52;;;;;;;1.63;0.75;;;7.90;99.90;;;;;;6192748;23;20178;-84
2020/12/24 10:14:23;;;;;;;0.70;0.60;;;7.90;99.90;;;;;;6193292;23;20178;-83
2020/12/24 10:16:54;;;;;;;0.52;0.52;;;8.00;99.90;;;;;;6192879;23;20199;-86
2020/12/24 10:19:27;;;;;;;1.58;0.90;;;8.00;99.90;;;;;;6193650;23;20229;-86
2020/12/24 10:22:31;;;;;;;0.77;0.77;;;8.00;99.90;;;;;;6193606;23;20174;-86
2020/12/24 10:25:06;;;;;;;0.50;0.50;;;7.90;99.90;;;;;;6194755;23;20170;-84
2020/12/24 10:27:47;;;;;;;2.10;0.93;;;7.90;99.90;;;;;;6194625;23;20672;-84
2020/12/24 10:30:20;;;;;;;1.20;1.10;;;8.00;99.90;;;;;;6192584;23;20198;-84
2020/12/24 10:35:47;;;;;;;1.40;1.35;;;8.10;99.90;;;;;;6189773;23;20206;-82
2020/12/24 10:38:14;;;;;;;1.95;0.85;;;8.10;99.90;;;;;;6192636;23;20182;-82
2020/12/24 10:40:40;;;;;;;1.05;0.95;;;8.20;99.90;;;;;;6192712;23;20179;-82
2020/12/24 10:43:06;;;;;;;2.17;1.10;;;8.30;99.90;;;;;;6191957;23;20185;-83
2020/12/24 10:45:33;;;;;;;1.63;0.70;;;8.40;99.90;;;;;;6192363;23;20268;-83
2020/12/24 10:47:59;;;;;;;2.55;0.82;;;8.30;99.90;;;;;;6192760;23;20178;-83
2020/12/24 10:50:25;;;;;;;1.13;0.70;;;8.30;99.90;;;;;;6192638;23;20190;-82
2020/12/24 10:52:51;;;;;;;0.38;0.38;;;8.30;99.90;;;;;;6192288;23;20202;-82
2020/12/24 10:55:19;;;;;;;0.52;0.50;;;8.40;99.90;;;;;;6192836;23;20186;-83
2020/12/24 10:57:46;;;;;;;0.50;0.50;;;8.40;99.90;;;;;;6193134;23;20215;-82
2020/12/24 11:00:12;;;;;;;0.40;0.40;;;8.40;99.90;;;;;;6192130;23;20185;-83
2020/12/24 11:02:39;;;;;;;0.75;0.65;;;8.40;99.90;;;;;;6192738;23;20181;-84
2020/12/24 11:05:05;;;;;;;1.58;0.60;;;8.50;99.90;;;;;;6191234;23;20189;-82
2020/12/24 11:07:32;;;;;;;2.13;0.43;;;8.50;99.90;;;;;;6192839;23;20182;-84
2020/12/24 11:09:58;;;;;;;1.95;0.70;;;8.50;99.90;;;;;;6191968;23;20228;-84
2020/12/24 11:12:25;;;;;;;0.70;0.70;;;8.60;99.90;;;;;;6191993;23;20577;-84
2020/12/24 11:14:52;;;;;;;1.40;0.50;;;8.70;99.90;;;;;;6191903;23;20190;-84
2020/12/24 11:17:18;;;;;;;0.30;0.30;;;8.70;99.90;;;;;;6191607;23;20206;-85
2020/12/24 11:19:45;;;;;;;1.67;1.58;;;8.60;99.90;;;;;;6193130;23;20178;-84
2020/12/24 11:22:12;;;;;;;0.50;0.43;;;8.60;99.90;;;;;;6193473;23;20287;-84
2020/12/24 11:24:40;;;;;;;1.75;0.50;;;8.80;99.90;;;;;;6194020;23;20183;-84
2020/12/24 11:27:06;;;;;;;0.65;0.40;;;9.10;99.90;;;;;;6194422;23;20206;-85
2020/12/24 11:29:36;;;;;;;1.40;0.55;;;9.60;99.90;;;;;;6196339;23;20516;-86
2020/12/24 11:32:02;;;;;;;0.68;0.68;;;9.80;99.90;;;;;;6193397;23;20205;-84
2020/12/24 11:34:29;;;;;;;0.77;0.60;;;10.20;99.90;;;;;;6194400;23;20233;-84
2020/12/24 11:36:56;;;;;;;0.93;0.50;;;10.90;99.90;;;;;;6193065;23;20218;-84
2020/12/24 11:39:22;;;;;;;1.03;0.50;;;11.80;99.90;;;;;;6193330;23;20409;-84
2020/12/24 11:41:48;;;;;;;0.60;0.40;;;12.50;99.90;;;;;;6193352;23;20418;-84
2020/12/24 11:44:15;;;;;;;2.90;1.73;;;13.20;98.60;;;;;;6194321;23;20441;-84
2020/12/24 11:46:42;;;;;;;0.53;0.53;;;13.60;98.30;;;;;;6193946;23;20948;-83
2020/12/24 11:49:08;;;;;;;1.40;0.63;;;13.90;96.40;;;;;;6194538;23;20409;-84
2020/12/24 11:51:34;;;;;;;0.90;0.30;;;13.80;95.50;;;;;;6195678;23;20797;-85
2020/12/24 11:54:00;;;;;;;0.70;0.60;;;13.60;96.20;;;;;;6195841;23;20411;-85
2020/12/24 11:56:27;;;;;;;0.50;0.40;;;13.30;96.70;;;;;;6195686;23;20429;-84
2020/12/24 11:58:53;;;;;;;0.60;0.50;;;13.20;97.00;;;;;;6193928;23;20421;-84
2020/12/24 12:01:21;;;;;;;1.90;0.70;;;13.30;96.40;;;;;;6194175;23;20408;-84
2020/12/24 12:03:49;;;;;;;1.37;0.30;;;13.70;97.00;;;;;;6195470;23;20408;-84
2020/12/24 12:06:16;;;;;;;0.50;0.40;;;13.80;95.50;;;;;;6195791;23;20432;-84
2020/12/24 12:08:42;;;;;;;0.40;0.40;;;13.90;95.50;;;;;;6194278;23;20492;-84
2020/12/24 12:11:08;;;;;;;0.37;0.33;;;13.70;94.80;;;;;;6194302;23;20416;-84
2020/12/24 12:13:37;;;;;;;0.70;0.70;;;13.20;94.40;;;;;;6196240;23;20450;-85
2020/12/24 12:16:05;;;;;;;0.60;0.60;;;12.90;95.70;;;;;;6195492;23;20456;-84
2020/12/24 12:18:32;;;;;;;0.80;0.47;;;13.20;95.90;;;;;;6197326;23;20414;-86
2020/12/24 12:20:59;;;;;;;1.70;1.60;;;13.50;95.80;;;;;;6199143;23;20422;-86
2020/12/24 12:23:25;;;;;;;1.03;0.57;;;13.30;95.10;;;;;;6198666;23;20399;-86
2020/12/24 12:25:52;;;;;;;0.50;0.30;;;12.70;95.50;;;;;;6199596;23;20428;-86
2020/12/24 12:28:18;;;;;;;1.80;0.50;;;12.20;95.80;;;;;;6195223;23;20467;-86
2020/12/24 12:33:29;;;;;;;1.57;0.50;;;11.70;97.40;;;;;;6194158;23;20448;-85
2020/12/24 12:35:55;;;;;;;3.90;0.77;;;11.30;97.40;;;;;;6195668;23;20762;-83
2020/12/24 12:38:22;;;;;;;0.63;0.30;;;11.00;98.40;;;;;;6193828;23;20179;-83
2020/12/24 12:40:48;;;;;;;0.60;0.30;;;10.60;98.60;;;;;;6193860;23;20743;-83
2020/12/24 12:43:15;;;;;;;2.00;0.90;;;10.30;99.60;;;;;;6193729;23;20186;-84
2020/12/24 12:45:41;;;;;;;1.73;0.63;;;10.00;99.90;;;;;;6193904;23;20249;-83
2020/12/24 12:48:08;;;;;;;0.60;0.50;;;10.20;99.90;;;;;;6193447;23;20198;-83
2020/12/24 12:50:34;;;;;;;0.30;0.30;;;10.20;99.90;;;;;;6193573;23;20180;-83
2020/12/24 12:53:00;;;;;;;0.40;0.40;;;10.10;99.90;;;;;;6193286;23;20202;-83
2020/12/24 12:55:27;;;;;;;0.70;0.63;;;9.80;99.90;;;;;;6193830;23;20203;-83
2020/12/24 12:57:53;;;;;;;0.95;0.47;;;9.60;99.90;;;;;;6193584;23;20517;-84
2020/12/24 13:00:20;;;;;;;0.40;0.30;;;9.50;99.90;;;;;;6193964;23;20186;-83
2020/12/24 13:02:46;;;;;;;1.65;0.50;;;9.20;99.90;;;;;;6193961;23;20179;-83
2020/12/24 13:05:12;;;;;;;1.77;0.70;;;9.20;99.90;;;;;;6193412;23;20179;-83
2020/12/24 13:07:38;;;;;;;0.60;0.60;;;9.00;99.90;;;;;;6194021;23;20182;-82
2020/12/24 13:10:06;;;;;;;0.50;0.50;;;9.00;99.90;;;;;;6193515;23;20203;-83
2020/12/24 13:12:33;;;;;;;0.40;0.40;;;9.10;99.90;;;;;;6193765;23;20202;-83
2020/12/24 13:14:59;;;;;;;0.70;0.70;;;9.20;99.90;;;;;;6198948;23;20179;-83
2020/12/24 13:17:26;;;;;;;1.20;0.57;;;9.10;99.90;;;;;;6197350;23;20202;-83
2020/12/24 13:19:52;;;;;;;0.60;0.60;;;9.00;99.90;;;;;;6199150;23;20182;-85